Time;durP1;ratioP1;P1;durP2;ratioP2;P2;SDS_P1;SDS_P2;PMS_P1;PMS_P2;Temp;Humidity;BMP_temperature;BMP_pressure;BME280_temperature;BME280_humidity;BME280_pressure;Samples;Min_cycle;Max_cycle;Signal;HPM_P1;HPM_P2
2021/05/05 00:01:32;;;;;;;5.32;3.85;;;10.00;91.70;;;;;;5028897;28;20095;-74
2021/05/05 00:03:58;;;;;;;9.85;3.45;;;10.00;91.80;;;;;;5028833;28;20041;-75
2021/05/05 00:06:23;;;;;;;3.97;2.85;;;10.10;91.80;;;;;;5028760;28;20320;-75
2021/05/05 00:08:49;;;;;;;3.78;3.25;;;10.10;91.70;;;;;;5028699;28;20132;-74
2021/05/05 00:11:15;;;;;;;3.53;2.80;;;10.10;91.70;;;;;;5030166;28;20463;-74
2021/05/05 00:13:41;;;;;;;3.53;2.85;;;10.10;91.70;;;;;;5028736;28;20084;-75
2021/05/05 00:16:09;;;;;;;5.65;3.00;;;10.10;91.60;;;;;;5028506;28;20530;-74
2021/05/05 00:18:35;;;;;;;3.83;3.15;;;10.10;91.60;;;;;;5028833;28;20443;-74
2021/05/05 00:21:02;;;;;;;4.68;3.00;;;10.10;91.60;;;;;;5029005;28;20082;-74
2021/05/05 00:23:28;;;;;;;4.95;2.70;;;10.00;91.60;;;;;;5031221;28;20107;-74
2021/05/05 00:25:53;;;;;;;6.93;3.58;;;10.00;91.50;;;;;;5033933;28;20088;-74
2021/05/05 00:28:19;;;;;;;6.88;2.90;;;10.00;91.80;;;;;;5030815;28;20049;-74
2021/05/05 00:30:46;;;;;;;6.20;2.70;;;10.00;91.50;;;;;;5031821;28;20516;-76
2021/05/05 00:33:12;;;;;;;4.30;2.50;;;10.00;91.40;;;;;;5032212;28;20064;-74
2021/05/05 00:35:37;;;;;;;3.45;2.47;;;10.00;91.40;;;;;;5032122;28;20451;-74
2021/05/05 00:38:04;;;;;;;4.85;2.80;;;10.00;91.30;;;;;;5032741;28;20097;-73
2021/05/05 00:40:29;;;;;;;6.88;2.50;;;10.00;91.30;;;;;;5030875;28;20044;-75
2021/05/05 00:42:55;;;;;;;5.22;2.65;;;10.00;91.30;;;;;;5030822;28;20033;-75
2021/05/05 00:45:21;;;;;;;3.92;2.50;;;10.00;91.40;;;;;;5031566;28;20104;-75
2021/05/05 00:47:47;;;;;;;5.07;2.90;;;9.90;92.50;;;;;;5031856;28;20033;-75
2021/05/05 00:50:16;;;;;;;8.48;2.83;;;10.00;92.20;;;;;;5033000;28;20363;-75
2021/05/05 00:52:41;;;;;;;4.82;2.88;;;9.90;92.90;;;;;;5032048;28;20264;-75
2021/05/05 00:55:08;;;;;;;5.20;2.92;;;9.90;93.10;;;;;;5031529;28;20045;-74
2021/05/05 00:57:35;;;;;;;3.88;2.63;;;9.90;93.20;;;;;;5031712;28;20034;-74
2021/05/05 01:00:01;;;;;;;2.88;2.33;;;9.80;93.10;;;;;;5031673;28;20048;-74
2021/05/05 01:02:26;;;;;;;5.50;2.65;;;9.90;93.30;;;;;;5031448;28;20022;-76
2021/05/05 01:04:52;;;;;;;4.38;2.80;;;9.70;94.00;;;;;;5031858;28;20074;-74
2021/05/05 01:07:18;;;;;;;5.28;2.88;;;9.80;93.70;;;;;;5031502;28;20037;-74
2021/05/05 01:09:46;;;;;;;5.30;2.40;;;9.80;94.10;;;;;;5030252;28;20041;-74
2021/05/05 01:12:12;;;;;;;3.58;2.40;;;9.70;94.00;;;;;;5031543;28;20490;-75
2021/05/05 01:14:39;;;;;;;6.15;3.10;;;9.60;93.70;;;;;;5030258;28;20038;-74
2021/05/05 01:17:06;;;;;;;3.88;2.55;;;9.70;93.20;;;;;;5032841;28;20026;-74
2021/05/05 01:19:31;;;;;;;5.05;2.72;;;9.60;93.00;;;;;;5031119;28;20040;-75
2021/05/05 01:21:57;;;;;;;6.10;2.40;;;9.50;93.00;;;;;;5031258;28;20033;-73
2021/05/05 01:24:23;;;;;;;4.97;2.50;;;9.50;93.00;;;;;;5030733;28;20048;-75
2021/05/05 01:26:48;;;;;;;5.05;2.15;;;9.50;92.90;;;;;;5031144;28;20577;-74
2021/05/05 01:29:16;;;;;;;2.97;2.15;;;9.40;92.60;;;;;;5032402;28;20061;-73
2021/05/05 01:31:42;;;;;;;2.25;2.05;;;9.40;92.80;;;;;;5030578;28;20037;-74
2021/05/05 01:34:08;;;;;;;5.28;2.63;;;9.30;93.00;;;;;;5030488;28;20398;-74
2021/05/05 01:36:36;;;;;;;2.85;2.03;;;9.40;92.90;;;;;;5030645;28;20041;-74
2021/05/05 01:39:23;;;;;;;7.38;2.55;;;9.30;93.00;;;;;;5031342;28;20040;-74
2021/05/05 01:41:49;;;;;;;5.03;2.25;;;9.30;92.90;;;;;;5030800;28;20044;-75
2021/05/05 01:44:15;;;;;;;5.10;2.58;;;9.20;92.90;;;;;;5032401;28;20025;-74
2021/05/05 01:46:48;;;;;;;4.22;2.08;;;9.20;92.90;;;;;;5031317;28;20026;-74
2021/05/05 01:49:21;;;;;;;5.20;2.00;;;9.10;93.30;;;;;;5030555;28;20048;-75
2021/05/05 01:51:48;;;;;;;5.63;2.05;;;9.20;92.90;;;;;;5018143;28;20038;-74
2021/05/05 01:54:14;;;;;;;5.13;1.95;;;9.20;92.90;;;;;;5018710;28;20116;-74
2021/05/05 01:56:40;;;;;;;4.57;2.20;;;9.20;93.00;;;;;;5030352;28;20535;-74
2021/05/05 01:59:05;;;;;;;4.38;2.38;;;9.20;93.20;;;;;;5032272;28;20032;-74
2021/05/05 02:01:31;;;;;;;6.13;2.10;;;9.10;93.20;;;;;;5030542;28;20065;-75
2021/05/05 02:04:01;;;;;;;7.18;2.00;;;9.10;93.30;;;;;;5030243;28;20088;-75
2021/05/05 02:06:27;;;;;;;2.53;1.85;;;9.10;93.40;;;;;;5030190;28;20042;-74
2021/05/05 02:08:53;;;;;;;4.32;1.95;;;9.00;93.40;;;;;;5030541;28;20068;-75
2021/05/05 02:11:18;;;;;;;8.73;2.22;;;9.10;93.30;;;;;;5030483;28;20033;-74
2021/05/05 02:13:44;;;;;;;8.00;2.10;;;9.10;93.40;;;;;;5032192;28;20064;-75
2021/05/05 02:16:09;;;;;;;3.88;2.17;;;9.10;93.40;;;;;;5030054;28;20367;-75
2021/05/05 02:18:35;;;;;;;8.85;2.30;;;9.10;93.40;;;;;;5030222;28;20030;-75
2021/05/05 02:21:01;;;;;;;4.38;2.35;;;9.10;93.60;;;;;;5030124;28;20459;-74
2021/05/05 02:23:26;;;;;;;4.43;2.47;;;9.20;93.60;;;;;;5030059;28;20144;-74
2021/05/05 02:25:52;;;;;;;7.28;2.10;;;9.10;93.90;;;;;;5031622;28;20017;-74
2021/05/05 02:28:18;;;;;;;2.90;2.30;;;9.20;94.00;;;;;;5030087;28;20053;-74
2021/05/05 02:30:44;;;;;;;5.40;2.70;;;9.10;94.30;;;;;;5028703;28;20084;-75
2021/05/05 02:33:09;;;;;;;5.43;2.22;;;9.10;95.10;;;;;;5029910;28;20212;-74
2021/05/05 02:35:35;;;;;;;4.13;2.78;;;9.00;95.40;;;;;;5029740;28;23345;-74
2021/05/05 02:38:01;;;;;;;4.95;3.05;;;9.10;95.80;;;;;;5031753;28;20051;-74
2021/05/05 02:40:27;;;;;;;4.63;2.83;;;8.80;96.70;;;;;;5029632;28;20426;-74
2021/05/05 02:42:53;;;;;;;6.38;2.83;;;8.80;97.10;;;;;;5029688;28;20121;-74
2021/05/05 02:45:19;;;;;;;2.90;2.55;;;9.00;97.20;;;;;;5028668;28;20069;-75
2021/05/05 02:47:44;;;;;;;6.18;2.72;;;8.90;97.50;;;;;;5029824;28;20076;-74
2021/05/05 02:50:10;;;;;;;6.70;4.00;;;8.80;98.00;;;;;;5031165;28;20026;-75
2021/05/05 02:52:37;;;;;;;5.03;3.10;;;8.80;98.10;;;;;;5029516;28;20037;-74
2021/05/05 02:55:03;;;;;;;5.60;3.55;;;8.90;98.00;;;;;;5028015;28;20124;-74
2021/05/05 02:57:29;;;;;;;6.72;3.28;;;8.80;98.00;;;;;;5028667;28;20033;-75
2021/05/05 02:59:55;;;;;;;5.18;3.08;;;8.80;98.40;;;;;;5029518;28;20434;-74
2021/05/05 03:02:20;;;;;;;8.75;3.63;;;8.80;98.30;;;;;;5029743;28;20022;-74
2021/05/05 03:04:46;;;;;;;5.47;3.30;;;8.70;98.60;;;;;;5030082;28;20022;-74
2021/05/05 03:07:11;;;;;;;4.50;3.75;;;8.70;98.90;;;;;;5029442;28;20077;-75
2021/05/05 03:09:37;;;;;;;3.97;2.95;;;8.70;98.80;;;;;;5029360;28;20038;-75
2021/05/05 03:12:03;;;;;;;6.88;3.70;;;8.70;98.70;;;;;;5029264;28;20510;-75
2021/05/05 03:14:29;;;;;;;4.55;3.33;;;8.80;98.80;;;;;;5029126;28;20498;-75
2021/05/05 03:16:57;;;;;;;6.00;3.28;;;8.60;99.00;;;;;;5030661;28;20026;-74
2021/05/05 03:19:23;;;;;;;8.18;3.88;;;8.70;99.00;;;;;;5029372;28;20041;-75
2021/05/05 03:21:48;;;;;;;5.68;3.50;;;8.80;99.20;;;;;;5029355;28;20029;-75
2021/05/05 03:24:14;;;;;;;5.45;3.00;;;8.70;99.20;;;;;;5029244;28;20034;-75
2021/05/05 03:26:40;;;;;;;5.38;2.38;;;8.70;98.60;;;;;;5028929;28;20404;-74
2021/05/05 03:29:06;;;;;;;3.80;2.00;;;8.70;98.60;;;;;;5030566;28;20373;-74
2021/05/05 03:31:33;;;;;;;3.90;2.13;;;8.50;98.90;;;;;;5028928;28;20029;-75
2021/05/05 03:33:59;;;;;;;5.45;2.08;;;8.50;98.60;;;;;;5027887;28;20037;-74
2021/05/05 03:36:25;;;;;;;2.65;1.80;;;8.40;98.70;;;;;;5027897;28;20048;-73
2021/05/05 03:38:51;;;;;;;3.13;1.50;;;8.40;98.40;;;;;;5028868;28;20037;-74
2021/05/05 03:41:16;;;;;;;2.63;1.73;;;8.40;98.30;;;;;;5028904;28;20034;-73
2021/05/05 03:43:42;;;;;;;4.50;2.17;;;8.50;98.30;;;;;;5030182;28;20048;-75
2021/05/05 03:46:08;;;;;;;2.75;1.98;;;8.50;98.40;;;;;;5028711;28;20033;-75
2021/05/05 03:48:34;;;;;;;8.68;2.55;;;8.50;98.60;;;;;;5028579;28;20033;-75
2021/05/05 03:50:59;;;;;;;5.60;2.20;;;8.50;98.50;;;;;;5028808;28;20037;-76
2021/05/05 03:53:25;;;;;;;5.80;2.10;;;8.60;98.40;;;;;;5028841;28;20021;-75
2021/05/05 03:55:51;;;;;;;4.40;2.25;;;8.60;98.30;;;;;;5031764;28;20033;-75
2021/05/05 03:58:17;;;;;;;6.10;2.17;;;8.70;98.10;;;;;;5032754;28;20045;-75
2021/05/05 04:00:43;;;;;;;3.55;2.15;;;8.60;98.20;;;;;;5032757;28;20037;-75
2021/05/05 04:03:08;;;;;;;4.95;2.30;;;8.60;98.30;;;;;;5031538;28;20065;-75
2021/05/05 04:05:34;;;;;;;6.28;2.30;;;8.60;98.90;;;;;;5032749;28;20030;-74
2021/05/05 04:08:00;;;;;;;4.57;2.30;;;8.70;98.60;;;;;;5034165;28;20017;-76
2021/05/05 04:10:26;;;;;;;5.05;2.10;;;8.70;98.60;;;;;;5032627;28;20140;-74
2021/05/05 04:12:52;;;;;;;6.90;2.40;;;8.60;98.50;;;;;;5031563;28;20051;-75
2021/05/05 04:15:18;;;;;;;5.30;2.40;;;8.50;98.50;;;;;;5032433;28;20176;-75
2021/05/05 04:17:43;;;;;;;6.78;2.20;;;8.60;98.30;;;;;;5032271;28;20120;-75
2021/05/05 04:20:11;;;;;;;8.07;2.60;;;8.40;98.60;;;;;;5034027;28;20029;-76
2021/05/05 04:22:37;;;;;;;5.03;2.10;;;8.40;98.50;;;;;;5032329;28;20042;-74
2021/05/05 04:25:04;;;;;;;4.30;1.90;;;8.50;98.40;;;;;;5032489;28;20120;-74
2021/05/05 04:27:30;;;;;;;7.20;1.73;;;8.50;98.30;;;;;;5032512;28;20056;-74
2021/05/05 04:29:55;;;;;;;5.28;1.77;;;8.50;98.20;;;;;;5031238;28;20105;-74
2021/05/05 04:32:22;;;;;;;10.82;2.40;;;8.50;97.90;;;;;;5031209;28;20038;-74
2021/05/05 04:34:47;;;;;;;7.20;2.08;;;8.50;97.80;;;;;;5033627;28;20125;-74
2021/05/05 04:37:13;;;;;;;7.18;1.92;;;8.50;97.90;;;;;;5030064;28;20487;-75
2021/05/05 04:39:39;;;;;;;3.92;2.22;;;8.50;97.60;;;;;;5032154;28;20040;-75
2021/05/05 04:42:07;;;;;;;5.22;1.80;;;8.60;97.40;;;;;;5024330;28;20026;-75
2021/05/05 04:44:33;;;;;;;7.65;2.05;;;8.60;97.40;;;;;;5011998;28;20036;-74
2021/05/05 04:46:58;;;;;;;7.13;2.17;;;8.70;97.40;;;;;;5013696;28;20511;-73
2021/05/05 04:49:26;;;;;;;5.55;2.33;;;8.70;97.40;;;;;;5029561;28;20068;-74
2021/05/05 04:51:52;;;;;;;7.30;1.85;;;8.70;97.50;;;;;;5031810;28;20042;-74
2021/05/05 04:54:18;;;;;;;6.15;2.38;;;8.70;97.10;;;;;;5030808;28;20043;-74
2021/05/05 04:56:43;;;;;;;6.80;2.20;;;8.70;96.90;;;;;;5031820;28;20061;-74
2021/05/05 04:59:09;;;;;;;8.98;2.15;;;8.70;97.20;;;;;;5033475;28;20065;-75
2021/05/05 05:01:35;;;;;;;2.80;1.83;;;8.80;97.20;;;;;;5031914;28;20076;-75
2021/05/05 05:04:00;;;;;;;7.63;2.47;;;8.80;97.10;;;;;;5030605;28;20531;-74
2021/05/05 05:06:27;;;;;;;7.20;2.75;;;8.80;97.10;;;;;;5030963;28;20060;-75
2021/05/05 05:08:53;;;;;;;7.80;2.50;;;8.80;97.20;;;;;;5029598;28;20257;-76
2021/05/05 05:11:18;;;;;;;6.68;2.65;;;8.80;97.10;;;;;;5031500;28;20025;-75
2021/05/05 05:13:44;;;;;;;6.15;2.20;;;8.80;97.10;;;;;;5032119;28;20104;-75
2021/05/05 05:16:10;;;;;;;4.75;2.35;;;8.80;96.90;;;;;;5031211;28;20434;-75
2021/05/05 05:18:35;;;;;;;6.05;1.85;;;8.80;97.00;;;;;;5031222;28;20038;-75
2021/05/05 05:21:05;;;;;;;7.05;2.10;;;8.70;96.40;;;;;;5031153;28;20117;-75
2021/05/05 05:23:32;;;;;;;7.85;2.35;;;8.80;96.40;;;;;;5031162;28;20029;-74
2021/05/05 05:25:58;;;;;;;7.70;2.13;;;8.80;96.30;;;;;;5031619;28;20034;-74
2021/05/05 05:28:24;;;;;;;4.03;2.03;;;8.70;96.00;;;;;;5029609;28;20324;-74
2021/05/05 05:30:50;;;;;;;3.90;2.03;;;8.80;95.80;;;;;;5030819;28;20110;-74
2021/05/05 05:33:16;;;;;;;7.50;1.80;;;8.90;95.60;;;;;;5031273;28;20041;-75
2021/05/05 05:35:41;;;;;;;8.27;2.25;;;8.80;95.20;;;;;;5031178;28;20048;-74
2021/05/05 05:38:07;;;;;;;6.28;2.20;;;8.90;95.30;;;;;;5032667;28;20037;-74
2021/05/05 05:40:34;;;;;;;6.22;2.33;;;9.00;95.30;;;;;;5031149;28;20052;-74
2021/05/05 05:42:59;;;;;;;5.30;1.63;;;9.00;95.20;;;;;;5030513;28;20100;-75
2021/05/05 05:45:28;;;;;;;5.20;1.17;;;9.00;95.00;;;;;;5029819;28;20072;-75
2021/05/05 05:47:53;;;;;;;6.55;1.33;;;9.00;94.20;;;;;;5030705;28;20456;-75
2021/05/05 05:50:20;;;;;;;4.57;1.20;;;9.00;93.60;;;;;;5030421;28;20036;-75
2021/05/05 05:52:46;;;;;;;8.00;1.75;;;9.10;93.30;;;;;;5031487;28;20507;-75
2021/05/05 05:55:15;;;;;;;4.55;1.60;;;9.00;93.70;;;;;;5029708;28;20042;-75
2021/05/05 05:57:43;;;;;;;8.38;1.63;;;9.10;93.50;;;;;;5030888;28;20048;-74
2021/05/05 06:00:11;;;;;;;6.80;1.30;;;9.10;93.30;;;;;;5029636;28;20029;-74
2021/05/05 06:02:37;;;;;;;5.70;1.42;;;9.20;93.40;;;;;;5029400;28;20061;-74
2021/05/05 06:05:04;;;;;;;4.78;1.70;;;9.10;93.50;;;;;;5032169;28;20111;-74
2021/05/05 06:07:30;;;;;;;6.03;1.40;;;9.10;93.30;;;;;;5030563;28;20448;-75
2021/05/05 06:09:56;;;;;;;7.80;1.75;;;9.20;93.00;;;;;;5029195;28;20116;-75
2021/05/05 06:12:22;;;;;;;5.50;1.63;;;9.20;92.90;;;;;;5030033;28;20120;-75
2021/05/05 06:14:48;;;;;;;7.22;1.50;;;9.30;92.80;;;;;;5030611;28;20060;-75
2021/05/05 06:17:14;;;;;;;13.80;1.58;;;9.30;92.90;;;;;;5029981;28;20044;-75
2021/05/05 06:19:39;;;;;;;7.45;1.50;;;9.40;92.70;;;;;;5029670;28;20030;-75
2021/05/05 06:22:05;;;;;;;10.88;1.50;;;9.40;92.80;;;;;;5030249;28;20037;-74
2021/05/05 06:24:31;;;;;;;5.97;1.88;;;9.40;92.70;;;;;;5029350;28;20056;-75
2021/05/05 06:26:57;;;;;;;9.13;1.60;;;9.50;92.80;;;;;;5030311;28;20082;-76
2021/05/05 06:29:22;;;;;;;7.68;1.58;;;9.40;92.70;;;;;;5029813;28;20537;-75
2021/05/05 06:31:48;;;;;;;7.82;1.77;;;9.50;92.90;;;;;;5030387;28;20029;-76
2021/05/05 06:34:14;;;;;;;5.78;1.75;;;9.50;93.10;;;;;;5030048;28;20053;-78
2021/05/05 06:36:39;;;;;;;9.70;2.13;;;9.50;93.00;;;;;;5030065;28;20045;-74
2021/05/05 06:39:08;;;;;;;7.95;1.58;;;9.60;93.20;;;;;;5029971;28;20515;-75
2021/05/05 06:41:38;;;;;;;5.28;1.80;;;9.70;92.90;;;;;;5029033;28;20026;-76
2021/05/05 06:44:05;;;;;;;6.43;1.52;;;9.70;92.70;;;;;;5031584;28;20072;-75
2021/05/05 06:46:34;;;;;;;8.20;1.88;;;9.60;92.60;;;;;;5028719;28;20404;-75
2021/05/05 06:49:00;;;;;;;8.23;1.52;;;9.60;92.60;;;;;;5029670;28;20037;-74
2021/05/05 06:51:26;;;;;;;12.25;2.25;;;9.50;92.20;;;;;;5028144;28;20120;-73
2021/05/05 06:53:52;;;;;;;4.43;1.65;;;9.50;92.30;;;;;;5028243;28;20040;-74
2021/05/05 06:56:18;;;;;;;8.55;1.58;;;9.60;92.20;;;;;;5029117;28;20025;-74
2021/05/05 06:58:44;;;;;;;6.97;1.48;;;9.60;92.00;;;;;;5030072;28;20067;-76
2021/05/05 07:01:10;;;;;;;6.93;1.50;;;9.70;91.80;;;;;;5029373;28;20197;-76
2021/05/05 07:03:35;;;;;;;6.88;1.40;;;9.60;91.80;;;;;;5027930;28;20065;-76
2021/05/05 07:06:02;;;;;;;5.65;1.27;;;9.60;91.60;;;;;;5028482;28;20522;-76
2021/05/05 07:08:28;;;;;;;7.47;1.73;;;9.60;91.70;;;;;;5029431;28;20097;-75
2021/05/05 07:10:55;;;;;;;11.68;1.90;;;9.60;91.80;;;;;;5030713;28;20022;-75
2021/05/05 07:13:21;;;;;;;11.18;1.70;;;9.60;91.70;;;;;;5029149;28;20038;-74
2021/05/05 07:15:47;;;;;;;7.47;1.42;;;9.70;91.80;;;;;;5028005;28;20037;-74
2021/05/05 07:18:12;;;;;;;13.07;1.92;;;9.70;91.50;;;;;;5029299;28;20034;-74
2021/05/05 07:20:38;;;;;;;8.45;1.98;;;9.70;91.50;;;;;;5028809;28;20032;-74
2021/05/05 07:23:03;;;;;;;5.32;1.20;;;9.60;91.30;;;;;;5031169;28;20412;-75
2021/05/05 07:25:29;;;;;;;9.95;1.52;;;9.60;91.20;;;;;;5028129;28;20471;-75
2021/05/05 07:27:54;;;;;;;10.65;1.98;;;9.70;91.30;;;;;;5027497;28;20030;-76
2021/05/05 07:30:20;;;;;;;8.25;1.70;;;9.80;91.20;;;;;;5028262;28;20482;-75
2021/05/05 07:32:47;;;;;;;8.40;1.30;;;9.90;90.90;;;;;;5027793;28;20072;-74
2021/05/05 07:35:15;;;;;;;11.93;1.92;;;10.10;90.40;;;;;;5029351;28;20602;-75
2021/05/05 07:43:44;;;;;;;11.43;2.05;;;10.90;85.30;;;;;;5028576;28;20494;-74
2021/05/05 07:46:04;;;;;;;10.32;2.00;;;11.40;84.20;;;;;;5028519;28;20045;-74
2021/05/05 07:50:58;;;;;;;8.15;1.42;;;12.10;81.00;;;;;;5028476;28;20129;-74
2021/05/05 07:53:24;;;;;;;12.85;2.03;;;12.60;79.70;;;;;;5028842;28;20029;-73
2021/05/05 07:55:51;;;;;;;7.70;2.17;;;13.20;79.30;;;;;;5030017;28;20045;-74
2021/05/05 07:58:18;;;;;;;5.75;1.77;;;13.60;75.60;;;;;;5028753;28;20077;-74
2021/05/05 08:00:43;;;;;;;7.43;1.60;;;13.60;75.60;;;;;;5028547;28;20069;-75
2021/05/05 08:03:10;;;;;;;8.80;1.50;;;14.00;73.70;;;;;;5029062;28;20456;-76
2021/05/05 08:05:36;;;;;;;8.63;2.13;;;14.10;74.00;;;;;;5028922;28;20021;-74
2021/05/05 08:08:02;;;;;;;11.68;2.05;;;13.60;72.00;;;;;;5030349;28;20025;-73
2021/05/05 08:10:28;;;;;;;10.95;1.75;;;13.10;73.70;;;;;;5027841;28;20039;-74
2021/05/05 08:12:54;;;;;;;8.25;1.90;;;14.00;73.10;;;;;;5027495;28;20128;-74
2021/05/05 08:15:21;;;;;;;8.82;1.75;;;13.80;69.90;;;;;;5027477;28;20557;-74
2021/05/05 08:17:47;;;;;;;8.38;1.83;;;14.40;70.30;;;;;;5028486;28;20124;-73
2021/05/05 08:20:13;;;;;;;9.15;1.77;;;14.50;67.50;;;;;;5030217;28;20160;-74
2021/05/05 08:22:39;;;;;;;6.95;1.70;;;15.10;68.50;;;;;;5027392;28;20110;-74
2021/05/05 08:25:06;;;;;;;7.53;1.48;;;14.40;66.20;;;;;;5028328;28;20096;-74
2021/05/05 08:27:32;;;;;;;11.07;1.90;;;14.50;65.30;;;;;;5028694;28;20419;-74
2021/05/05 08:29:58;;;;;;;4.35;1.23;;;14.60;65.00;;;;;;5027910;28;20033;-74
2021/05/05 08:32:24;;;;;;;8.85;1.90;;;14.80;66.50;;;;;;5027452;28;20021;-74
2021/05/05 08:34:49;;;;;;;11.13;2.10;;;14.50;64.60;;;;;;5029877;28;20027;-73
2021/05/05 08:37:15;;;;;;;10.38;1.75;;;13.90;64.90;;;;;;5028219;28;20053;-74
2021/05/05 08:39:41;;;;;;;11.88;2.47;;;14.00;66.00;;;;;;5028415;28;20095;-73
2021/05/05 08:42:06;;;;;;;10.40;1.67;;;13.70;66.20;;;;;;5030226;28;20061;-72
2021/05/05 08:44:33;;;;;;;6.28;1.70;;;13.30;66.30;;;;;;5030903;28;20462;-73
2021/05/05 08:46:58;;;;;;;9.38;1.83;;;13.20;66.80;;;;;;5033579;28;20143;-74
2021/05/05 08:49:24;;;;;;;12.07;1.85;;;13.50;67.50;;;;;;5031719;28;20037;-73
2021/05/05 08:51:50;;;;;;;9.88;2.20;;;12.70;68.10;;;;;;5031697;28;20034;-75
2021/05/05 08:54:17;;;;;;;4.22;1.00;;;12.70;68.80;;;;;;5031847;28;20025;-73
2021/05/05 08:56:43;;;;;;;5.47;1.55;;;13.10;68.10;;;;;;5030967;28;20051;-74
2021/05/05 08:59:14;;;;;;;9.25;1.50;;;13.80;66.30;;;;;;5033384;28;20026;-74
2021/05/05 09:01:41;;;;;;;6.10;1.60;;;13.90;65.10;;;;;;5031429;28;20168;-74
2021/05/05 09:04:07;;;;;;;9.48;1.75;;;14.30;66.20;;;;;;5031731;28;20034;-74
2021/05/05 09:06:54;;;;;;;7.78;1.70;;;14.50;65.50;;;;;;5031562;28;20122;-73
2021/05/05 09:09:35;;;;;;;5.18;1.25;;;14.60;65.50;;;;;;5031602;28;20060;-73
2021/05/05 09:12:19;;;;;;;12.77;1.75;;;14.40;64.20;;;;;;5030742;28;20029;-74
2021/05/05 09:14:55;;;;;;;6.15;1.38;;;15.50;65.20;;;;;;5031673;28;20595;-72
2021/05/05 09:17:24;;;;;;;4.18;1.48;;;14.90;61.10;;;;;;5031253;28;20076;-73
2021/05/05 09:19:52;;;;;;;4.68;1.67;;;14.40;62.70;;;;;;5033006;28;20406;-73
2021/05/05 09:22:38;;;;;;;7.15;1.55;;;14.80;62.90;;;;;;5031053;28;20367;-73
2021/05/05 09:25:10;;;;;;;6.47;1.20;;;15.00;61.40;;;;;;5030092;28;20044;-72
2021/05/05 09:27:39;;;;;;;9.07;1.60;;;14.00;60.30;;;;;;5031463;28;20544;-72
2021/05/05 09:30:16;;;;;;;13.15;2.50;;;14.00;62.00;;;;;;5030954;28;20107;-74
2021/05/05 09:32:53;;;;;;;5.90;1.45;;;13.40;62.20;;;;;;5031301;28;20046;-72
2021/05/05 09:35:28;;;;;;;8.85;1.95;;;13.90;63.20;;;;;;5030842;28;20033;-75
2021/05/05 09:38:00;;;;;;;5.28;1.38;;;13.80;62.70;;;;;;5031362;28;20040;-73
2021/05/05 09:40:26;;;;;;;4.38;1.20;;;14.10;62.30;;;;;;5031310;28;20029;-74
2021/05/05 09:42:53;;;;;;;7.30;2.03;;;14.30;61.70;;;;;;5031016;28;20026;-73
2021/05/05 09:45:19;;;;;;;10.13;1.73;;;14.50;60.80;;;;;;5029794;28;20042;-73
2021/05/05 09:47:51;;;;;;;9.80;2.55;;;14.10;58.90;;;;;;5030819;28;20041;-75
2021/05/05 09:50:36;;;;;;;7.20;1.70;;;14.00;58.80;;;;;;5030761;28;20037;-73
2021/05/05 09:53:19;;;;;;;7.18;1.67;;;13.90;59.60;;;;;;5031434;28;20290;-75
2021/05/05 09:56:06;;;;;;;6.65;1.88;;;14.00;61.00;;;;;;5030886;28;20478;-75
2021/05/05 09:58:32;;;;;;;7.85;1.60;;;13.90;63.40;;;;;;5029365;28;20040;-75
2021/05/05 10:01:04;;;;;;;6.18;1.50;;;14.10;62.60;;;;;;5030222;28;20067;-74
2021/05/05 10:03:52;;;;;;;10.73;1.92;;;14.50;63.40;;;;;;5029578;28;20037;-75
2021/05/05 10:06:19;;;;;;;9.93;1.40;;;14.60;61.20;;;;;;5030494;28;20032;-75
2021/05/05 10:08:44;;;;;;;5.93;1.65;;;13.90;61.20;;;;;;5029695;28;20037;-74
2021/05/05 10:11:11;;;;;;;8.52;2.00;;;13.50;61.50;;;;;;5032315;28;20079;-75
2021/05/05 10:13:37;;;;;;;9.80;1.67;;;13.60;61.50;;;;;;5030482;28;20037;-75
2021/05/05 10:16:04;;;;;;;7.05;1.60;;;13.60;61.00;;;;;;5030008;28;20052;-74
2021/05/05 10:18:30;;;;;;;5.68;1.70;;;13.80;60.60;;;;;;5028880;28;20045;-73
2021/05/05 10:20:57;;;;;;;7.70;1.75;;;14.00;59.50;;;;;;5030213;28;20116;-74
2021/05/05 10:23:24;;;;;;;7.53;1.33;;;13.60;59.10;;;;;;5029981;28;20022;-74
2021/05/05 10:25:50;;;;;;;6.88;1.45;;;13.50;60.20;;;;;;5030708;28;20030;-74
2021/05/05 10:28:17;;;;;;;9.73;1.38;;;13.30;60.60;;;;;;5029895;28;20092;-74
2021/05/05 10:30:44;;;;;;;8.07;1.73;;;13.40;61.10;;;;;;5029780;28;20045;-74
2021/05/05 10:33:20;;;;;;;8.70;1.52;;;13.50;60.80;;;;;;5029168;28;20128;-74
2021/05/05 10:35:46;;;;;;;7.97;1.48;;;13.30;60.50;;;;;;5029881;28;20518;-76
2021/05/05 10:38:31;;;;;;;5.68;1.42;;;13.70;60.30;;;;;;5031578;28;20163;-74
2021/05/05 10:41:11;;;;;;;6.60;1.40;;;13.70;60.00;;;;;;5029618;28;20128;-74
2021/05/05 10:43:51;;;;;;;6.93;1.50;;;13.40;60.60;;;;;;5028727;28;20497;-74
2021/05/05 10:46:32;;;;;;;6.20;1.67;;;13.50;61.20;;;;;;5029880;28;20140;-74
2021/05/05 10:49:03;;;;;;;10.15;1.70;;;13.40;61.50;;;;;;5029560;28;20041;-74
2021/05/05 10:51:44;;;;;;;6.63;1.45;;;13.40;61.40;;;;;;5029751;28;20358;-74
2021/05/05 10:54:17;;;;;;;9.65;2.65;;;13.30;60.40;;;;;;5028510;28;20085;-73
2021/05/05 10:57:04;;;;;;;5.45;1.40;;;13.40;59.70;;;;;;5029678;28;20064;-74
2021/05/05 10:59:29;;;;;;;5.15;1.48;;;13.60;59.60;;;;;;5028197;28;20041;-74
2021/05/05 11:01:55;;;;;;;8.55;1.17;;;14.00;60.30;;;;;;5031005;28;20037;-74
2021/05/05 11:04:21;;;;;;;5.82;1.35;;;14.10;59.60;;;;;;5029089;28;20033;-73
2021/05/05 11:06:57;;;;;;;6.10;1.55;;;14.10;59.10;;;;;;5029043;28;20064;-74
2021/05/05 11:09:23;;;;;;;5.47;1.35;;;14.10;59.60;;;;;;5029282;28;20041;-74
2021/05/05 11:11:51;;;;;;;3.65;1.10;;;13.80;59.10;;;;;;5029097;28;20123;-75
2021/05/05 11:14:32;;;;;;;4.10;1.30;;;13.70;59.90;;;;;;5029058;28;20025;-74
2021/05/05 11:17:01;;;;;;;3.13;1.27;;;14.00;60.20;;;;;;5030522;28;20044;-74
2021/05/05 11:19:40;;;;;;;5.47;1.00;;;13.70;60.10;;;;;;5028111;28;20116;-73
2021/05/05 11:22:17;;;;;;;5.47;1.10;;;13.60;61.00;;;;;;5029090;28;20289;-73
2021/05/05 11:24:43;;;;;;;5.53;1.77;;;13.30;63.20;;;;;;5027957;28;20467;-73
2021/05/05 11:27:11;;;;;;;3.97;1.05;;;13.30;64.20;;;;;;5028955;28;20095;-74
2021/05/05 11:29:54;;;;;;;9.57;1.73;;;13.20;65.60;;;;;;5028867;28;20145;-74
2021/05/05 11:32:23;;;;;;;6.93;1.50;;;13.30;66.20;;;;;;5029233;28;20036;-74
2021/05/05 11:34:50;;;;;;;3.47;1.00;;;13.40;66.40;;;;;;5029558;28;20060;-74
2021/05/05 11:37:25;;;;;;;3.67;1.00;;;13.30;65.40;;;;;;5027815;28;20069;-74
2021/05/05 11:39:54;;;;;;;4.15;0.93;;;13.10;67.90;;;;;;5027829;28;20419;-74
2021/05/05 11:42:26;;;;;;;3.28;0.95;;;12.90;74.00;;;;;;5028699;28;20112;-75
2021/05/05 11:44:53;;;;;;;4.05;1.20;;;13.10;74.00;;;;;;5028935;28;20471;-75
2021/05/05 11:47:24;;;;;;;7.65;1.48;;;13.00;72.80;;;;;;5028895;28;20105;-74
2021/05/05 11:49:55;;;;;;;5.18;1.40;;;13.00;71.20;;;;;;5030616;28;20097;-74
2021/05/05 11:52:35;;;;;;;3.78;1.42;;;12.90;72.20;;;;;;5029218;28;20040;-73
2021/05/05 11:55:07;;;;;;;11.77;1.42;;;12.90;71.40;;;;;;5028965;28;20041;-75
2021/05/05 11:57:40;;;;;;;4.68;1.50;;;12.80;69.80;;;;;;5028682;28;20191;-75
2021/05/05 12:00:37;;;;;;;4.32;1.10;;;12.90;70.50;;;;;;5029124;28;20131;-75
2021/05/05 12:03:06;;;;;;;5.33;1.20;;;13.10;70.60;;;;;;5027383;28;20037;-74
2021/05/05 12:05:32;;;;;;;4.57;1.17;;;12.80;69.90;;;;;;5028124;28;20258;-75
2021/05/05 12:08:09;;;;;;;3.50;0.88;;;12.80;70.30;;;;;;5030184;28;20068;-74
2021/05/05 12:10:55;;;;;;;4.88;0.95;;;12.70;70.00;;;;;;5028367;28;20033;-74
2021/05/05 12:13:27;;;;;;;2.08;0.82;;;12.20;72.50;;;;;;5028546;28;20029;-74
2021/05/05 12:18:27;;;;;;;3.28;0.50;;;11.80;79.90;;;;;;5032984;28;20064;-75
2021/05/05 12:20:59;;;;;;;7.78;1.15;;;12.00;80.10;;;;;;5032578;28;20033;-76
2021/05/05 12:23:34;;;;;;;3.35;1.23;;;12.10;78.70;;;;;;5032756;28;20086;-75
2021/05/05 12:26:11;;;;;;;5.80;0.70;;;12.50;77.40;;;;;;5034434;28;20032;-74
2021/05/05 12:28:37;;;;;;;7.82;1.02;;;12.70;76.20;;;;;;5032154;28;20054;-75
2021/05/05 12:31:03;;;;;;;2.80;0.90;;;12.50;75.70;;;;;;5032363;28;20124;-74
2021/05/05 12:33:31;;;;;;;5.32;1.10;;;12.50;76.10;;;;;;5032378;28;20465;-75
2021/05/05 12:35:59;;;;;;;4.68;1.00;;;12.30;76.00;;;;;;5031039;28;20057;-75
2021/05/05 12:38:25;;;;;;;3.57;1.10;;;12.30;76.60;;;;;;5032523;28;20087;-74
2021/05/05 12:41:03;;;;;;;2.42;1.00;;;12.60;76.70;;;;;;5033664;28;20533;-74
2021/05/05 12:43:30;;;;;;;8.65;1.20;;;12.80;75.40;;;;;;5031912;28;20040;-74
2021/05/05 12:45:58;;;;;;;3.45;0.73;;;12.80;74.00;;;;;;5017313;28;20484;-75
2021/05/05 12:48:27;;;;;;;1.33;0.50;;;12.90;73.60;;;;;;5021421;28;20037;-75
2021/05/05 12:50:54;;;;;;;5.45;1.33;;;13.00;73.80;;;;;;5030754;28;20479;-74
2021/05/05 12:53:21;;;;;;;7.15;1.05;;;13.20;73.70;;;;;;5031958;28;20399;-73
2021/05/05 12:55:58;;;;;;;2.85;0.90;;;13.00;72.60;;;;;;5032450;28;20022;-75
2021/05/05 12:58:23;;;;;;;2.10;0.60;;;13.00;72.70;;;;;;5031591;28;20056;-74
2021/05/05 13:00:52;;;;;;;4.15;0.77;;;12.90;72.00;;;;;;5031491;28;20376;-74
2021/05/05 13:03:20;;;;;;;6.00;1.02;;;12.60;73.10;;;;;;5031602;28;20040;-74
2021/05/05 13:05:56;;;;;;;4.55;0.80;;;12.70;73.60;;;;;;5030597;28;20205;-75